Time;durP1;ratioP1;P1;durP2;ratioP2;P2;SDS_P1;SDS_P2;PMS_P1;PMS_P2;Temp;Humidity;BMP_temperature;BMP_pressure;BME280_temperature;BME280_humidity;BME280_pressure;Samples;Min_cycle;Max_cycle;Signal;HPM_P1;HPM_P2
2021/12/15 00:00:17;;;;;;;46.30;25.25;;;8.30;99.90;;;;;;5090422;28;20063;-48
2021/12/15 00:02:44;;;;;;;47.45;25.23;;;8.30;99.90;;;;;;5090232;28;20089;-48
2021/12/15 00:05:11;;;;;;;41.60;24.10;;;8.30;99.90;;;;;;5088236;28;20026;-48
2021/12/15 00:07:37;;;;;;;45.80;25.20;;;8.30;99.90;;;;;;5077464;28;20492;-47
2021/12/15 00:10:06;;;;;;;42.63;23.52;;;8.30;99.90;;;;;;5088349;28;20020;-48
2021/12/15 00:12:32;;;;;;;41.90;23.85;;;8.30;99.90;;;;;;5088533;28;20028;-48
2021/12/15 00:14:58;;;;;;;47.78;24.85;;;8.30;99.90;;;;;;5089834;28;20046;-47
2021/12/15 00:17:24;;;;;;;41.65;23.52;;;8.30;99.90;;;;;;5089362;28;20438;-48
2021/12/15 00:19:50;;;;;;;39.17;22.58;;;8.30;99.90;;;;;;5088454;28;20029;-48
2021/12/15 00:22:16;;;;;;;38.88;22.50;;;8.40;99.90;;;;;;5089405;28;20462;-47
2021/12/15 00:24:42;;;;;;;41.70;22.90;;;8.30;99.90;;;;;;5089670;28;20021;-48
2021/12/15 00:27:08;;;;;;;40.72;23.77;;;8.30;99.90;;;;;;5089411;28;20028;-50
2021/12/15 00:29:34;;;;;;;43.75;23.95;;;8.20;99.90;;;;;;5088357;28;20028;-50
2021/12/15 00:32:03;;;;;;;37.53;21.55;;;8.20;99.90;;;;;;5090237;28;20028;-49
2021/12/15 00:34:31;;;;;;;40.80;21.00;;;8.30;99.90;;;;;;5089576;28;20113;-49
2021/12/15 00:36:56;;;;;;;41.25;22.48;;;8.20;99.90;;;;;;5081074;28;20020;-51
2021/12/15 00:39:22;;;;;;;36.53;21.52;;;8.20;99.90;;;;;;5081685;28;20258;-52
2021/12/15 00:41:48;;;;;;;36.70;20.88;;;8.20;99.90;;;;;;5088245;28;20039;-50
2021/12/15 00:44:15;;;;;;;39.60;20.67;;;8.20;99.90;;;;;;5087687;28;20024;-51
2021/12/15 00:46:41;;;;;;;37.30;20.45;;;8.20;99.90;;;;;;5088967;28;20020;-48
2021/12/15 00:49:08;;;;;;;38.65;22.00;;;8.20;99.90;;;;;;5088705;28;20027;-48
2021/12/15 00:51:36;;;;;;;37.80;21.27;;;8.20;99.90;;;;;;5089639;28;20031;-48
2021/12/15 00:54:02;;;;;;;43.35;22.25;;;8.20;99.90;;;;;;5088846;28;20028;-47
2021/12/15 00:56:28;;;;;;;35.83;20.52;;;8.20;99.90;;;;;;5088903;28;20028;-47
2021/12/15 00:58:53;;;;;;;36.88;20.92;;;8.30;99.90;;;;;;5088803;28;20483;-50
2021/12/15 01:01:19;;;;;;;37.58;22.25;;;8.20;99.90;;;;;;5088871;28;20024;-48
2021/12/15 01:03:45;;;;;;;39.22;21.95;;;8.20;99.90;;;;;;5089148;28;20032;-48
2021/12/15 01:06:16;;;;;;;39.80;22.33;;;8.20;99.90;;;;;;5082594;28;20020;-50
2021/12/15 01:08:46;;;;;;;35.03;19.70;;;8.20;99.90;;;;;;5079714;28;20535;-49
2021/12/15 01:11:30;;;;;;;39.15;21.73;;;8.20;99.90;;;;;;5087635;28;20031;-48
2021/12/15 01:22:13;;;;;;;37.50;21.30;;;8.20;99.90;;;;;;5088568;28;20039;-47
2021/12/15 01:24:38;;;;;;;34.90;20.40;;;8.20;99.90;;;;;;5087564;28;20111;-48
2021/12/15 01:27:04;;;;;;;32.28;19.27;;;8.20;99.90;;;;;;5087994;28;20111;-48
2021/12/15 01:29:30;;;;;;;32.78;18.83;;;8.20;99.90;;;;;;5087936;28;20028;-48
2021/12/15 01:31:56;;;;;;;32.53;18.90;;;8.20;99.90;;;;;;5087066;28;20111;-48
2021/12/15 01:34:21;;;;;;;37.20;20.38;;;8.20;99.90;;;;;;5088008;28;20073;-48
2021/12/15 01:36:47;;;;;;;37.88;20.15;;;8.20;99.90;;;;;;5081352;28;20024;-47
2021/12/15 01:39:13;;;;;;;32.28;19.67;;;8.20;99.90;;;;;;5079248;28;20028;-48
2021/12/15 01:41:39;;;;;;;34.42;19.38;;;8.20;99.90;;;;;;5088572;28;20028;-48
2021/12/15 01:46:55;;;;;;;31.17;18.45;;;8.30;99.90;;;;;;5088323;28;20052;-48
2021/12/15 01:49:23;;;;;;;33.72;19.63;;;8.30;99.90;;;;;;5087365;28;20018;-48
2021/12/15 01:51:49;;;;;;;33.67;20.33;;;8.30;99.90;;;;;;5087721;28;20024;-47
2021/12/15 01:54:16;;;;;;;35.58;19.70;;;8.30;99.90;;;;;;5088281;28;20046;-51
2021/12/15 01:56:42;;;;;;;33.65;19.70;;;8.30;99.90;;;;;;5087135;28;20020;-48
2021/12/15 01:59:09;;;;;;;32.50;19.50;;;8.20;99.90;;;;;;5087021;28;20031;-48
2021/12/15 02:01:35;;;;;;;30.00;19.23;;;8.20;99.90;;;;;;5085890;28;20032;-48
2021/12/15 02:04:01;;;;;;;31.75;18.67;;;8.20;99.90;;;;;;5087707;28;20381;-48
2021/12/15 02:06:27;;;;;;;32.83;18.95;;;8.20;99.90;;;;;;5082567;28;20022;-48
2021/12/15 02:08:53;;;;;;;37.55;19.67;;;8.20;99.90;;;;;;5078999;28;20024;-50
2021/12/15 02:11:19;;;;;;;34.42;19.88;;;8.30;99.90;;;;;;5087827;28;20016;-48
2021/12/15 02:13:45;;;;;;;30.15;17.98;;;8.30;99.90;;;;;;5087829;28;20028;-49
2021/12/15 02:16:11;;;;;;;33.75;19.70;;;8.30;99.90;;;;;;5088335;28;20024;-48
2021/12/15 02:18:44;;;;;;;28.88;17.88;;;8.30;99.90;;;;;;5087515;28;20021;-50
2021/12/15 02:21:18;;;;;;;28.50;17.63;;;8.30;99.90;;;;;;5087635;28;20017;-50
2021/12/15 02:23:49;;;;;;;33.45;19.63;;;8.30;99.90;;;;;;5087612;28;20035;-49
2021/12/15 02:26:17;;;;;;;;;;;8.20;99.90;;;;;;5088466;28;20020;-49
2021/12/15 02:28:50;;;;;;;33.25;19.25;;;8.30;99.90;;;;;;5087721;28;19904;-50
2021/12/15 02:31:52;;;;;;;30.65;18.85;;;8.20;99.90;;;;;;5088085;28;20095;-48
2021/12/15 02:37:21;;;;;;;31.02;17.70;;;8.30;99.90;;;;;;5082170;28;20053;-48
2021/12/15 02:39:39;;;;;;;29.38;17.67;;;8.30;99.90;;;;;;5076946;28;20650;-49
2021/12/15 02:42:06;;;;;;;31.33;17.65;;;8.30;99.90;;;;;;5087680;28;20081;-48
2021/12/15 02:44:32;;;;;;;31.20;18.50;;;8.40;99.90;;;;;;5087530;28;20059;-48
2021/12/15 02:46:58;;;;;;;32.53;18.33;;;8.40;99.90;;;;;;5088152;28;20060;-48
2021/12/15 02:49:27;;;;;;;30.00;18.38;;;8.40;99.90;;;;;;5085883;28;20553;-48
2021/12/15 02:51:55;;;;;;;29.45;17.58;;;8.40;99.90;;;;;;5087709;28;20028;-49
2021/12/15 02:54:22;;;;;;;30.30;18.08;;;8.40;99.90;;;;;;5087916;28;20345;-48
2021/12/15 02:56:51;;;;;;;29.05;17.38;;;8.40;99.90;;;;;;5087841;28;20047;-48
2021/12/15 02:59:21;;;;;;;28.50;17.45;;;8.40;99.90;;;;;;5087179;28;20073;-49
2021/12/15 03:04:42;;;;;;;;;;;8.40;99.90;;;;;;5080039;28;20025;-48
2021/12/15 03:08:04;;;;;;;29.15;17.77;;;8.40;99.90;;;;;;5067636;28;20242;-47
2021/12/15 03:15:34;;;;;;;32.22;18.90;;;8.40;99.90;;;;;;5090871;28;20206;-48
2021/12/15 03:18:06;;;;;;;32.58;20.00;;;8.40;99.90;;;;;;5090311;28;20024;-47
2021/12/15 03:20:37;;;;;;;30.23;18.40;;;8.40;99.90;;;;;;5090927;28;20424;-47
2021/12/15 03:23:05;;;;;;;29.50;17.48;;;8.40;99.90;;;;;;5090674;28;20050;-47
2021/12/15 03:25:31;;;;;;;31.60;18.45;;;8.40;99.90;;;;;;5090748;28;20023;-47
2021/12/15 03:36:14;;;;;;;33.55;19.38;;;8.40;99.90;;;;;;5085721;28;20441;-49
2021/12/15 03:38:40;;;;;;;;;;;8.40;99.90;;;;;;5081452;28;20480;-50
2021/12/15 03:41:08;;;;;;;29.27;17.50;;;8.40;99.90;;;;;;5084495;28;19912;-47
2021/12/15 03:43:35;;;;;;;29.55;16.92;;;8.40;99.90;;;;;;5069426;28;20028;-48
2021/12/15 03:46:07;;;;;;;33.08;17.35;;;8.40;99.90;;;;;;5069982;28;20151;-47
2021/12/15 03:48:37;;;;;;;28.30;18.35;;;8.40;99.90;;;;;;5069573;28;20021;-48
2021/12/15 03:51:03;;;;;;;33.60;19.60;;;8.50;99.90;;;;;;5068189;28;20021;-47
2021/12/15 03:53:30;;;;;;;32.00;18.90;;;8.50;99.90;;;;;;5070089;28;20581;-49
2021/12/15 03:55:56;;;;;;;30.55;19.52;;;8.50;99.90;;;;;;5068415;28;20024;-47
2021/12/15 03:58:24;;;;;;;28.52;18.35;;;8.50;99.90;;;;;;5069038;28;20371;-48
2021/12/15 04:01:00;;;;;;;33.03;19.38;;;8.60;99.90;;;;;;5068056;28;20532;-49
2021/12/15 04:03:42;;;;;;;30.23;17.70;;;8.60;99.90;;;;;;5068578;28;20071;-48
2021/12/15 04:06:12;;;;;;;30.13;18.83;;;8.60;99.90;;;;;;5068187;28;20032;-49
2021/12/15 04:08:40;;;;;;;30.48;18.55;;;8.60;99.90;;;;;;5070710;28;20705;-48
2021/12/15 04:11:08;;;;;;;28.75;18.80;;;8.50;99.90;;;;;;5069518;28;20052;-48
2021/12/15 04:13:35;;;;;;;32.67;19.48;;;8.60;99.90;;;;;;5069257;28;20036;-48
2021/12/15 04:16:07;;;;;;;30.38;17.77;;;8.50;99.90;;;;;;5069930;28;20035;-50
2021/12/15 04:18:33;;;;;;;27.10;17.35;;;8.50;99.90;;;;;;5068541;28;20398;-48
2021/12/15 04:20:59;;;;;;;27.27;17.80;;;8.60;99.90;;;;;;5069007;28;20031;-49
2021/12/15 04:23:25;;;;;;;33.47;18.98;;;8.50;99.90;;;;;;5069233;28;20111;-49
2021/12/15 04:25:54;;;;;;;33.33;19.27;;;8.60;99.90;;;;;;5068120;28;20282;-48
2021/12/15 04:28:33;;;;;;;31.10;18.23;;;8.50;99.90;;;;;;5068935;28;20398;-48
2021/12/15 04:31:01;;;;;;;30.33;18.58;;;8.50;99.90;;;;;;5069752;28;20021;-48
2021/12/15 04:33:50;;;;;;;30.92;18.77;;;8.50;99.90;;;;;;5069446;28;20027;-50
2021/12/15 04:36:17;;;;;;;30.25;17.58;;;8.50;99.90;;;;;;5072220;28;20026;-49
2021/12/15 04:38:43;;;;;;;27.35;17.05;;;8.60;99.90;;;;;;5080373;28;20381;-48
2021/12/15 04:41:13;;;;;;;30.00;18.40;;;8.60;99.90;;;;;;5089786;28;20503;-48
2021/12/15 04:43:40;;;;;;;29.65;18.08;;;8.60;99.90;;;;;;5089499;28;20024;-49
2021/12/15 04:46:09;;;;;;;28.70;17.35;;;8.60;99.90;;;;;;5089590;28;20028;-47
2021/12/15 04:48:37;;;;;;;30.48;17.90;;;8.60;99.90;;;;;;5104317;28;20038;-48
2021/12/15 04:51:04;;;;;;;30.35;17.77;;;8.60;99.90;;;;;;5089190;28;20032;-48
2021/12/15 04:53:29;;;;;;;32.25;19.08;;;8.60;99.90;;;;;;5080384;28;20493;-47
2021/12/15 04:55:55;;;;;;;30.75;18.05;;;8.60;99.90;;;;;;5086615;28;20042;-48
2021/12/15 04:58:21;;;;;;;31.70;19.55;;;8.70;99.90;;;;;;5089116;28;20034;-49
2021/12/15 05:01:00;;;;;;;30.48;18.38;;;8.70;99.90;;;;;;5083309;28;20050;-48
2021/12/15 05:03:26;;;;;;;33.65;19.58;;;8.70;99.90;;;;;;5070139;28;20020;-48
2021/12/15 05:05:52;;;;;;;32.13;18.40;;;8.70;99.90;;;;;;5069033;28;20017;-48
2021/12/15 05:08:19;;;;;;;34.20;19.10;;;8.70;99.90;;;;;;5068579;28;20058;-48
2021/12/15 05:10:44;;;;;;;36.22;20.63;;;8.70;99.90;;;;;;5069142;28;20089;-48
2021/12/15 05:13:11;;;;;;;35.80;20.65;;;8.70;99.90;;;;;;5068725;28;20044;-48
2021/12/15 05:15:38;;;;;;;33.47;19.42;;;8.70;99.90;;;;;;5068897;28;20053;-50
2021/12/15 05:18:05;;;;;;;33.40;18.38;;;8.80;99.90;;;;;;5068125;28;20681;-48
2021/12/15 05:20:33;;;;;;;32.63;18.98;;;8.80;99.90;;;;;;5068837;28;20025;-50
2021/12/15 05:23:01;;;;;;;32.60;20.40;;;8.80;99.90;;;;;;5076470;28;20046;-49
2021/12/15 05:25:27;;;;;;;32.47;20.15;;;8.80;99.90;;;;;;5082215;28;20016;-49
2021/12/15 05:27:53;;;;;;;37.95;20.75;;;8.80;99.90;;;;;;5088402;28;20513;-51
2021/12/15 05:30:20;;;;;;;34.20;19.25;;;8.80;99.90;;;;;;5088891;28;20028;-51
2021/12/15 05:32:46;;;;;;;30.80;19.35;;;8.80;99.90;;;;;;5088656;28;20524;-50
2021/12/15 05:35:20;;;;;;;31.13;19.00;;;8.80;99.90;;;;;;5088581;28;20063;-51
2021/12/15 05:37:45;;;;;;;34.28;19.10;;;8.80;99.90;;;;;;5076737;28;20063;-49
2021/12/15 05:40:11;;;;;;;31.83;19.45;;;8.80;99.90;;;;;;5086161;28;20351;-50
2021/12/15 05:42:38;;;;;;;32.65;19.77;;;8.80;99.90;;;;;;5088445;28;20090;-50
2021/12/15 05:45:05;;;;;;;31.17;19.08;;;8.80;99.90;;;;;;5088493;28;20020;-50
2021/12/15 05:47:31;;;;;;;35.00;19.30;;;8.80;99.90;;;;;;5087694;28;20550;-48
2021/12/15 05:49:57;;;;;;;36.10;21.40;;;8.80;99.90;;;;;;5083108;28;20017;-50
2021/12/15 05:52:30;;;;;;;32.78;19.42;;;8.90;99.90;;;;;;5068984;28;20028;-48
2021/12/15 05:54:56;;;;;;;32.10;19.00;;;8.80;99.90;;;;;;5068888;28;20029;-48
2021/12/15 05:57:22;;;;;;;32.20;18.80;;;8.80;99.90;;;;;;5068308;28;20401;-49
2021/12/15 05:59:48;;;;;;;35.83;19.65;;;8.80;99.90;;;;;;5068670;28;20029;-51
2021/12/15 06:02:14;;;;;;;32.78;18.95;;;8.80;99.90;;;;;;5069005;28;20078;-48
2021/12/15 06:04:39;;;;;;;29.42;18.15;;;8.90;99.90;;;;;;5068732;28;20439;-48
2021/12/15 06:07:05;;;;;;;29.77;19.05;;;8.90;99.90;;;;;;5076822;28;20024;-50
2021/12/15 06:09:32;;;;;;;30.45;18.65;;;8.90;99.90;;;;;;5082043;28;20046;-48
2021/12/15 06:11:59;;;;;;;32.05;19.38;;;8.90;99.90;;;;;;5088841;28;20051;-49
2021/12/15 06:14:27;;;;;;;32.15;18.73;;;8.90;99.90;;;;;;5088720;28;20067;-47
2021/12/15 06:16:56;;;;;;;31.80;19.50;;;8.90;99.90;;;;;;5088825;28;20481;-49
2021/12/15 06:19:22;;;;;;;27.73;17.63;;;8.90;99.90;;;;;;5088190;28;20024;-51
2021/12/15 06:21:47;;;;;;;26.17;16.45;;;8.90;99.90;;;;;;5088359;28;20735;-49
2021/12/15 06:24:13;;;;;;;28.80;18.27;;;8.90;99.90;;;;;;5104546;28;20175;-49
2021/12/15 06:26:39;;;;;;;27.65;17.38;;;8.90;99.90;;;;;;5088865;28;20020;-49
2021/12/15 06:29:05;;;;;;;28.77;17.98;;;8.90;99.90;;;;;;5088675;28;20115;-48
2021/12/15 06:31:31;;;;;;;27.23;17.52;;;9.00;99.90;;;;;;5088511;28;20164;-47
2021/12/15 06:33:56;;;;;;;27.52;17.27;;;9.00;99.90;;;;;;5070355;28;20048;-48
2021/12/15 06:36:22;;;;;;;29.98;17.77;;;9.00;99.90;;;;;;5063219;28;20040;-47
2021/12/15 06:38:51;;;;;;;27.63;16.60;;;9.00;99.90;;;;;;5066800;28;20389;-48
2021/12/15 06:41:18;;;;;;;25.00;15.70;;;9.00;99.90;;;;;;5067259;28;20418;-48
2021/12/15 06:43:49;;;;;;;25.58;16.58;;;9.00;99.90;;;;;;5070711;28;20016;-50
2021/12/15 06:59:41;;;;;;;27.85;15.55;;;9.00;99.90;;;;;;5070810;28;20101;-48
2021/12/15 07:02:07;;;;;;;23.58;14.98;;;9.00;99.90;;;;;;5070908;28;20060;-49
2021/12/15 07:04:33;;;;;;;22.98;15.13;;;9.00;99.90;;;;;;5072017;28;20024;-51
2021/12/15 07:06:59;;;;;;;22.73;14.90;;;9.00;99.90;;;;;;5081342;28;20454;-51
2021/12/15 07:09:25;;;;;;;25.08;14.93;;;9.00;99.90;;;;;;5078608;28;20024;-50
2021/12/15 07:11:52;;;;;;;24.83;16.77;;;9.00;99.90;;;;;;5071659;28;20020;-49
2021/12/15 07:14:18;;;;;;;27.63;16.02;;;8.90;99.90;;;;;;5072049;28;20095;-51
2021/12/15 07:16:47;;;;;;;22.35;15.63;;;9.00;99.90;;;;;;5071751;28;20033;-51
2021/12/15 07:21:54;;;;;;;26.08;16.52;;;9.00;99.90;;;;;;5071502;28;20034;-49
2021/12/15 07:24:21;;;;;;;25.58;15.90;;;9.00;99.90;;;;;;5072063;28;20047;-51
2021/12/15 07:26:48;;;;;;;24.70;15.88;;;9.00;99.90;;;;;;5071919;28;20019;-49
2021/12/15 07:29:14;;;;;;;25.90;16.20;;;9.00;99.90;;;;;;5071038;28;20055;-47
2021/12/15 07:31:40;;;;;;;24.60;15.85;;;9.00;99.90;;;;;;5071399;28;20060;-48
2021/12/15 07:34:05;;;;;;;28.17;16.35;;;9.00;99.90;;;;;;5071565;28;20020;-48
2021/12/15 07:36:31;;;;;;;29.38;16.45;;;9.00;99.90;;;;;;5071159;28;20458;-48
2021/12/15 07:38:58;;;;;;;26.95;16.50;;;9.10;99.90;;;;;;5079988;28;20111;-48
2021/12/15 07:41:30;;;;;;;25.90;15.45;;;9.10;99.90;;;;;;5091420;28;20089;-48
2021/12/15 07:44:01;;;;;;;25.33;16.00;;;9.10;99.90;;;;;;5091382;28;20052;-48
2021/12/15 07:46:27;;;;;;;24.48;16.13;;;9.10;99.90;;;;;;5091762;28;20032;-48
2021/12/15 07:48:53;;;;;;;25.10;16.02;;;9.10;99.90;;;;;;5090756;28;20493;-49
2021/12/15 07:51:19;;;;;;;25.90;16.67;;;9.10;99.90;;;;;;5089797;28;20085;-47
2021/12/15 07:53:44;;;;;;;25.70;16.48;;;9.10;99.90;;;;;;5077263;28;20056;-48
2021/12/15 07:56:11;;;;;;;30.25;16.55;;;9.10;99.90;;;;;;5070274;28;20031;-49
2021/12/15 07:58:37;;;;;;;33.25;19.38;;;9.20;99.90;;;;;;5068712;28;20031;-48
2021/12/15 08:01:05;;;;;;;31.20;18.95;;;9.20;99.90;;;;;;5070393;28;20100;-48
2021/12/15 08:03:33;;;;;;;32.40;19.50;;;9.10;99.90;;;;;;5077121;28;20115;-48
2021/12/15 08:06:00;;;;;;;32.90;19.00;;;9.10;99.90;;;;;;5075069;28;20082;-48
2021/12/15 08:08:27;;;;;;;28.35;17.63;;;9.10;99.90;;;;;;5083486;28;20024;-48
2021/12/15 08:10:56;;;;;;;32.97;17.90;;;9.10;99.90;;;;;;5091039;28;20077;-48
2021/12/15 08:13:23;;;;;;;34.30;20.17;;;9.10;99.90;;;;;;5090811;28;20016;-49
2021/12/15 08:15:49;;;;;;;35.35;20.40;;;9.10;99.90;;;;;;5090771;28;20262;-48
2021/12/15 08:18:15;;;;;;;36.78;20.65;;;9.10;99.90;;;;;;5090251;28;20448;-48
2021/12/15 08:20:41;;;;;;;38.92;21.52;;;9.10;99.90;;;;;;5090634;28;20710;-49
2021/12/15 08:23:07;;;;;;;38.80;22.20;;;9.10;99.90;;;;;;5090247;28;20105;-48
2021/12/15 08:25:34;;;;;;;39.22;22.25;;;9.00;99.90;;;;;;5088713;28;20455;-48
2021/12/15 08:28:01;;;;;;;40.88;22.27;;;9.00;99.90;;;;;;5089753;28;20027;-50
2021/12/15 08:30:31;;;;;;;42.90;22.90;;;9.00;99.90;;;;;;5090297;28;20485;-48
2021/12/15 08:33:00;;;;;;;41.80;22.80;;;9.00;99.90;;;;;;5090628;28;20103;-49
2021/12/15 08:35:30;;;;;;;40.72;23.05;;;9.00;99.90;;;;;;5090451;28;20027;-48
2021/12/15 08:37:56;;;;;;;41.95;23.63;;;9.00;99.90;;;;;;5073286;28;20101;-48
2021/12/15 08:40:23;;;;;;;45.00;25.38;;;9.00;99.90;;;;;;5078192;28;20450;-48
2021/12/15 08:42:49;;;;;;;46.38;25.13;;;9.10;99.90;;;;;;5070372;28;20099;-50
2021/12/15 08:45:16;;;;;;;47.70;25.27;;;9.10;99.90;;;;;;5070134;28;20170;-48
2021/12/15 08:47:43;;;;;;;44.35;23.70;;;9.00;99.90;;;;;;5069555;28;20028;-48
2021/12/15 08:50:13;;;;;;;47.15;25.27;;;9.00;99.90;;;;;;5070383;28;20427;-48
2021/12/15 08:52:38;;;;;;;50.40;27.00;;;9.00;99.90;;;;;;5069803;28;20243;-49
2021/12/15 08:55:06;;;;;;;41.70;23.48;;;9.00;99.90;;;;;;5069810;28;20040;-48
2021/12/15 08:57:33;;;;;;;44.17;24.80;;;9.00;99.90;;;;;;5069444;28;20017;-48
2021/12/15 08:59:59;;;;;;;48.25;25.42;;;9.00;99.90;;;;;;5069981;28;20418;-48
2021/12/15 09:02:24;;;;;;;47.67;25.83;;;9.00;99.90;;;;;;5071796;28;20036;-48
2021/12/15 09:04:50;;;;;;;44.60;24.10;;;9.00;99.90;;;;;;5069365;28;20024;-48
2021/12/15 09:07:16;;;;;;;44.70;24.95;;;9.00;99.90;;;;;;5072609;28;20536;-48
2021/12/15 09:09:41;;;;;;;44.80;24.88;;;9.00;99.90;;;;;;5081655;28;20134;-48
2021/12/15 09:12:08;;;;;;;48.88;25.25;;;9.00;99.90;;;;;;5079306;28;20110;-48
2021/12/15 09:14:34;;;;;;;50.53;26.88;;;9.00;99.90;;;;;;5067742;28;20115;-48
2021/12/15 09:17:01;;;;;;;49.35;26.23;;;9.00;99.90;;;;;;5069464;28;20025;-48
2021/12/15 09:19:27;;;;;;;46.95;26.10;;;9.00;99.90;;;;;;5067627;28;20493;-51
2021/12/15 09:21:57;;;;;;;43.42;24.05;;;9.00;99.90;;;;;;5069109;28;20387;-50
2021/12/15 09:24:23;;;;;;;44.40;26.15;;;9.00;99.90;;;;;;5069376;28;20482;-50
2021/12/15 09:26:49;;;;;;;46.40;26.15;;;9.00;99.90;;;;;;5067971;28;20029;-50
2021/12/15 09:29:15;;;;;;;49.65;26.90;;;9.00;99.90;;;;;;5068416;28;20206;-48
2021/12/15 09:31:41;;;;;;;48.88;25.45;;;9.00;99.90;;;;;;5069337;28;20052;-51
2021/12/15 09:34:11;;;;;;;48.22;27.92;;;9.00;99.90;;;;;;5068653;28;20449;-49
2021/12/15 09:36:38;;;;;;;45.38;25.23;;;9.10;99.90;;;;;;5070625;28;20020;-50
2021/12/15 09:39:09;;;;;;;48.47;25.63;;;9.10;99.90;;;;;;5077772;28;20113;-48
2021/12/15 09:41:35;;;;;;;43.58;25.48;;;9.10;99.90;;;;;;5088814;28;20710;-51
2021/12/15 09:44:07;;;;;;;52.78;27.30;;;9.10;99.90;;;;;;5082025;28;20028;-51
2021/12/15 10:03:02;;;;;;;43.80;23.35;;;9.10;99.90;;;;;;5068987;28;20047;-49
2021/12/15 10:11:13;;;;;;;43.92;23.70;;;9.20;99.90;;;;;;5067951;28;20111;-50
2021/12/15 10:19:24;;;;;;;38.75;22.10;;;9.30;99.90;;;;;;5068163;28;20034;-51
2021/12/15 10:22:05;;;;;;;45.63;24.77;;;9.30;99.90;;;;;;5068453;28;20085;-49
2021/12/15 10:24:45;;;;;;;42.58;21.77;;;9.30;99.90;;;;;;5068727;28;20078;-52
2021/12/15 10:27:12;;;;;;;34.80;20.60;;;9.30;99.90;;;;;;5068403;28;20123;-50
2021/12/15 10:30:19;;;;;;;41.53;23.42;;;9.30;99.90;;;;;;5068521;28;20028;-51
2021/12/15 10:32:47;;;;;;;41.15;21.40;;;9.30;99.90;;;;;;5057512;28;20406;-52
2021/12/15 10:35:25;;;;;;;36.25;20.75;;;9.30;99.90;;;;;;5068010;28;20020;-51
2021/12/15 10:38:26;;;;;;;32.75;19.75;;;9.40;99.90;;;;;;5066777;28;20043;-52
2021/12/15 10:41:24;;;;;;;32.85;19.60;;;9.40;99.90;;;;;;5058535;28;20437;-49
2021/12/15 10:43:58;;;;;;;28.98;17.83;;;9.50;99.90;;;;;;5067473;28;20516;-50
2021/12/15 10:46:49;;;;;;;35.22;19.48;;;9.50;99.90;;;;;;5067707;28;20482;-50
2021/12/15 10:49:14;;;;;;;;;;;9.40;99.90;;;;;;5067868;28;20244;-52
2021/12/15 10:52:01;;;;;;;31.23;18.83;;;9.40;99.90;;;;;;5067991;28;20233;-52
2021/12/15 10:54:34;;;;;;;32.28;18.10;;;9.40;99.90;;;;;;5068246;28;20021;-49
2021/12/15 10:57:05;;;;;;;31.50;18.95;;;9.50;99.90;;;;;;5068266;28;20016;-50
2021/12/15 10:59:35;;;;;;;29.10;17.08;;;9.40;99.90;;;;;;5067893;28;20074;-50
2021/12/15 11:02:05;;;;;;;27.60;17.48;;;9.40;99.90;;;;;;5068076;28;20112;-52
2021/12/15 11:04:37;;;;;;;29.27;17.52;;;9.40;99.90;;;;;;5068575;28;20023;-52
2021/12/15 11:07:06;;;;;;;23.20;15.65;;;9.40;99.90;;;;;;5069849;28;20021;-51
2021/12/15 11:09:47;;;;;;;26.83;17.25;;;9.40;99.90;;;;;;5079531;28;20012;-52
2021/12/15 11:12:31;;;;;;;24.77;16.25;;;9.50;99.90;;;;;;5088602;28;20020;-49
2021/12/15 11:15:18;;;;;;;23.88;15.25;;;9.50;99.90;;;;;;5088488;28;20493;-51
2021/12/15 11:17:46;;;;;;;23.92;15.77;;;9.50;99.90;;;;;;5088376;28;20139;-51
2021/12/15 11:20:17;;;;;;;26.27;16.15;;;9.50;99.90;;;;;;5087983;28;20031;-49
2021/12/15 11:22:49;;;;;;;;;;;9.50;99.90;;;;;;5087879;28;20115;-52
2021/12/15 11:25:20;;;;;;;22.63;15.00;;;9.50;99.90;;;;;;5087889;28;20297;-52
2021/12/15 11:27:51;;;;;;;26.65;15.40;;;9.40;99.90;;;;;;5087518;28;20020;-49
2021/12/15 11:30:23;;;;;;;21.27;14.20;;;9.50;99.90;;;;;;5091303;28;20173;-49
2021/12/15 11:32:51;;;;;;;22.75;14.57;;;9.40;99.90;;;;;;5091357;28;20024;-51
2021/12/15 11:35:18;;;;;;;21.77;14.43;;;9.50;99.90;;;;;;5091012;28;20043;-49
2021/12/15 11:37:50;;;;;;;24.25;14.27;;;9.50;99.90;;;;;;5084908;28;20023;-51
2021/12/15 11:40:23;;;;;;;21.23;14.27;;;9.40;99.90;;;;;;5075007;28;20397;-50
2021/12/15 11:42:49;;;;;;;24.45;14.80;;;9.40;99.90;;;;;;5091704;28;20020;-51
2021/12/15 11:45:15;;;;;;;23.05;14.82;;;9.50;99.90;;;;;;5091615;28;20035;-50
2021/12/15 11:47:41;;;;;;;18.88;12.90;;;9.50;99.90;;;;;;5091505;28;20031;-50
2021/12/15 11:50:18;;;;;;;22.77;14.07;;;9.50;99.90;;;;;;5090160;28;20522;-52
2021/12/15 11:52:47;;;;;;;21.38;14.07;;;9.50;99.90;;;;;;5091307;28;20032;-52
2021/12/15 11:55:31;;;;;;;21.92;14.23;;;9.50;99.90;;;;;;5091337;28;20028;-49
2021/12/15 11:57:58;;;;;;;23.00;13.80;;;9.50;99.90;;;;;;5090887;28;20031;-51
2021/12/15 12:00:28;;;;;;;19.63;13.45;;;9.40;99.90;;;;;;5089585;28;20261;-50
2021/12/15 12:02:58;;;;;;;21.13;13.57;;;9.50;99.90;;;;;;5083076;28;20035;-51
2021/12/15 12:05:31;;;;;;;21.07;13.67;;;9.50;99.90;;;;;;5062295;28;20028;-51
2021/12/15 12:08:10;;;;;;;23.98;13.32;;;9.50;99.90;;;;;;5076817;28;20351;-50
2021/12/15 12:11:14;;;;;;;21.38;13.50;;;9.50;99.90;;;;;;5074996;28;20020;-51
2021/12/15 12:13:42;;;;;;;23.08;15.18;;;9.60;99.90;;;;;;5069065;28;20028;-50
2021/12/15 12:16:08;;;;;;;21.83;14.40;;;9.50;99.90;;;;;;5069164;28;20031;-51
2021/12/15 12:18:34;;;;;;;22.17;13.82;;;9.50;99.90;;;;;;5083683;28;20406;-50
2021/12/15 12:21:07;;;;;;;23.38;14.23;;;9.50;99.90;;;;;;5068992;28;20017;-51
2021/12/15 12:23:36;;;;;;;24.38;14.50;;;9.50;99.90;;;;;;5070436;28;20024;-49
2021/12/15 12:26:06;;;;;;;21.55;13.95;;;9.50;99.90;;;;;;5070358;28;20112;-49
2021/12/15 12:28:41;;;;;;;21.98;14.43;;;9.50;99.90;;;;;;5069220;28;20025;-50
2021/12/15 12:31:14;;;;;;;20.63;13.75;;;9.40;99.90;;;;;;5068811;28;20028;-49
2021/12/15 12:33:40;;;;;;;25.90;15.15;;;9.40;99.90;;;;;;5076680;28;20035;-52
2021/12/15 12:36:19;;;;;;;24.42;15.02;;;9.40;99.90;;;;;;5075028;28;20036;-49
2021/12/15 12:38:51;;;;;;;24.92;15.27;;;9.40;99.90;;;;;;5079406;28;20042;-51
2021/12/15 12:41:26;;;;;;;24.15;15.82;;;9.40;99.90;;;;;;5078319;28;20020;-49
2021/12/15 12:43:54;;;;;;;23.40;15.30;;;9.40;99.90;;;;;;5076757;28;20051;-50
2021/12/15 12:46:37;;;;;;;22.65;15.13;;;9.40;99.90;;;;;;5075330;28;20024;-49
2021/12/15 13:00:30;;;;;;;24.00;15.57;;;9.50;99.90;;;;;;5080986;28;20147;-50
2021/12/15 13:03:08;;;;;;;19.23;13.43;;;9.50;99.90;;;;;;5082087;28;20027;-49
2021/12/15 13:05:37;;;;;;;20.98;14.15;;;9.50;99.90;;;;;;5079380;28;20059;-48
2021/12/15 13:08:14;;;;;;;23.73;15.93;;;9.50;99.90;;;;;;5080883;28;20016;-48
2021/12/15 13:10:54;;;;;;;21.40;14.75;;;9.60;99.90;;;;;;5075774;28;20090;-49
2021/12/15 13:13:24;;;;;;;23.98;16.05;;;9.60;99.90;;;;;;5081181;28;20490;-49
2021/12/15 13:15:57;;;;;;;23.90;14.68;;;9.60;99.90;;;;;;5079550;28;20542;-51
2021/12/15 13:18:24;;;;;;;21.63;14.20;;;9.70;99.90;;;;;;5080895;28;20024;-50
2021/12/15 13:21:00;;;;;;;21.13;13.98;;;9.70;99.90;;;;;;5078907;28;20052;-51
2021/12/15 13:23:57;;;;;;;18.75;12.75;;;9.70;99.90;;;;;;5076953;28;20035;-49
2021/12/15 13:29:47;;;;;;;19.67;13.57;;;9.70;99.90;;;;;;5078961;28;20085;-49
2021/12/15 13:32:12;;;;;;;20.02;14.07;;;9.80;99.90;;;;;;5081355;28;20085;-49
2021/12/15 13:34:43;;;;;;;22.33;13.98;;;9.80;99.90;;;;;;5074064;28;20628;-51
2021/12/15 13:37:09;;;;;;;19.00;13.00;;;9.80;99.90;;;;;;5082862;28;20035;-51
2021/12/15 13:39:45;;;;;;;18.95;13.43;;;9.80;99.90;;;;;;5081152;28;20040;-49
2021/12/15 13:42:14;;;;;;;19.50;12.88;;;9.80;99.90;;;;;;5077546;28;20031;-51
2021/12/15 13:44:48;;;;;;;20.13;13.82;;;9.80;99.90;;;;;;5089660;28;20107;-50
2021/12/15 13:47:17;;;;;;;18.02;12.82;;;9.70;99.90;;;;;;5072869;28;20043;-49
2021/12/15 13:49:47;;;;;;;20.27;13.73;;;9.70;99.90;;;;;;5079285;28;20009;-49
2021/12/15 13:52:43;;;;;;;20.00;13.30;;;9.70;99.90;;;;;;5080427;28;20060;-49
2021/12/15 13:55:22;;;;;;;19.80;13.75;;;9.70;99.90;;;;;;5082469;28;20063;-51
2021/12/15 13:57:50;;;;;;;20.23;12.35;;;9.80;99.90;;;;;;5074961;28;20015;-50
2021/12/15 14:00:24;;;;;;;18.85;12.90;;;9.80;99.90;;;;;;5071253;28;20174;-50
2021/12/15 14:03:14;;;;;;;22.10;13.82;;;9.70;99.90;;;;;;5069466;28;20024;-48
2021/12/15 14:05:45;;;;;;;18.48;12.30;;;9.70;99.90;;;;;;5069397;28;20024;-49
2021/12/15 14:08:31;;;;;;;20.52;12.70;;;9.70;99.90;;;;;;5072479;28;20066;-50
2021/12/15 14:11:07;;;;;;;18.90;12.60;;;9.60;99.90;;;;;;5069805;28;20047;-51
2021/12/15 14:13:46;;;;;;;18.85;12.32;;;9.70;99.90;;;;;;5069978;28;20021;-49
2021/12/15 14:16:12;;;;;;;17.00;11.38;;;9.70;99.90;;;;;;5073668;28;20044;-52
2021/12/15 14:18:38;;;;;;;18.63;12.70;;;9.60;99.90;;;;;;5078566;28;20024;-51